Accueil
METAR-TAF:

METAR-TAF

Aéroports :

Miller Field

Valentine, Nebraska, États-Unis

latitude: 42-51-31N, longitude: 100-33-05W, altitude: 789 m

Observation

Le bulletin a été fait il y a 43 minutes, à 00:52 UTC
Vent 7 kt de ouest/nord-ouest
Température -16°C
Humidité 78%
Pression 1036 hPa
Visibilité: 16.1 km
Ciel clair

METAR: KVTN 120052Z AUTO 29007KT 10SM CLR M16/M19 A3059 RMK AO2 SLP423 T11561189

Heure: 19:35 (01:35 UTC)

Prévision

Le bulletin a été fait il y a 1 heure et 58 minutes, à 23:37 UTC
Prévision valable du 12 à 00 UTC au 12 à 24 UTC
Vent 5 kt de ouest/nord-ouest
Visibilité: 10 km
Ciel clair
A partir de 12 à 0500 UTC
Vent 8 kt de sud
Visibilité: 10 km
Ciel clair
A partir de 12 à 1800 UTC
Vent 15 kt de sud-ouest avec des rafales jusqu'à 21 kt
Visibilité: 10 km
Ciel clair

TAF: KVTN 112337Z 1200/1224 30005KT P6SM SKC FM120500 19008KT P6SM SKC FM121800 22015G21KT P6SM SKC

Observations et prévisions météorologiques de plus de 4000 aéroports (messages METAR et TAF).

Les stations disponibles sont représentées par des disques jaunes et rouges sur la carte.

Passer la souris dessus pour voir le nom de la station.

Cliquer dessus pour voir les observations et prévisions météorologiques.

Pour changer de carte: cliquez sur les boutons verts avec une croix noire pour zoomer, sur le bouton vert avec un tiret pour effectuer un zoom arrière, ou sur les flèches vertes pour les cartes adjacentes.


METAR-TAF: